Terminal Aerodrome Forecast
Issued by NWS Wilmington, OH

Current Version | Previous Version | Text Only | Print | Product List | Glossary Off
Versions: 1 2 3 4 5 6 7 8 9 10 11 12 13 14 15 16 17 18 19 20 21 22 23 24

000
FTUS41 KILN 021729
TAFDAY
TAF
KDAY 021729Z 0218/0318 34006KT P6SM SCT020 BKN100
      TEMPO 0218/0220 BKN022
     FM030000 02005KT P6SM SCT020 OVC050
     FM030700 02004KT P6SM OVC022
      TEMPO 0309/0313 4SM BR OVC012
     FM031600 34005KT P6SM SCT025 BKN040=

USA.gov is the U.S. government's official web portal to all federal, state and local government web resources and services.